createdAt,value
2023-02-27T00:01:22.927Z,102403.25
2023-02-27T00:03:50.605Z,102397.56
2023-02-27T00:06:19.496Z,102306.56
2023-02-27T00:08:47.196Z,102335.78
2023-02-27T00:11:15.119Z,102358.22
2023-02-27T00:13:42.870Z,102388.50
2023-02-27T00:16:12.802Z,102397.88
2023-02-27T00:18:43.404Z,102404.44
2023-02-27T00:21:11.068Z,102412.63
2023-02-27T00:23:38.622Z,102387.13
2023-02-27T00:26:06.306Z,102377.38
2023-02-27T00:28:33.919Z,102401.88
2023-02-27T00:31:01.943Z,102374.88
2023-02-27T00:33:29.644Z,102402.41
2023-02-27T00:35:59.858Z,102410.94
2023-02-27T00:38:28.931Z,102397.34
2023-02-27T00:40:59.298Z,102415.38
2023-02-27T00:43:27.610Z,102396.09
2023-02-27T00:45:55.295Z,102379.78
2023-02-27T00:48:23.038Z,102382.53
2023-02-27T00:50:51.002Z,102404.16
2023-02-27T00:53:18.695Z,102375.56
2023-02-27T00:55:46.363Z,102400.00
2023-02-27T00:58:14.042Z,102390.69
2023-02-27T01:00:41.708Z,102383.03
2023-02-27T01:03:09.618Z,102400.13
2023-02-27T01:05:37.410Z,102389.03
2023-02-27T01:08:05.372Z,102371.94
2023-02-27T01:10:33.036Z,102373.50
2023-02-27T01:13:00.682Z,102379.63
2023-02-27T01:15:28.596Z,102391.97
2023-02-27T01:17:56.316Z,102367.34
2023-02-27T01:20:24.086Z,102390.78
2023-02-27T01:22:51.804Z,102389.72
2023-02-27T01:25:19.498Z,102344.03
2023-02-27T01:27:47.188Z,102393.28
2023-02-27T01:30:16.204Z,102392.66
2023-02-27T01:32:45.505Z,102392.09
2023-02-27T01:35:13.435Z,102373.72
2023-02-27T01:37:41.096Z,102398.78
2023-02-27T01:40:09.919Z,102370.13
2023-02-27T01:42:37.620Z,102337.28
2023-02-27T01:45:11.985Z,102394.25
2023-02-27T01:47:48.034Z,102371.41
2023-02-27T01:50:17.754Z,102385.16
2023-02-27T01:52:52.427Z,102360.13
2023-02-27T01:55:20.790Z,102363.69
2023-02-27T01:57:50.051Z,102361.09
2023-02-27T02:00:18.307Z,102384.56
2023-02-27T02:03:14.522Z,102380.97
2023-02-27T02:05:43.955Z,102402.50
2023-02-27T02:08:17.527Z,102401.78
2023-02-27T02:10:47.918Z,102390.44
2023-02-27T02:13:18.797Z,102386.88
2023-02-27T02:16:26.332Z,102388.06
2023-02-27T02:19:09.214Z,102394.00
2023-02-27T02:21:53.352Z,102403.56
2023-02-27T02:25:30.907Z,102407.91
2023-02-27T02:28:19.937Z,102403.53
2023-02-27T02:31:05.538Z,102391.34
2023-02-27T02:34:10.355Z,102397.16
2023-02-27T02:36:48.674Z,102391.38
2023-02-27T02:39:39.143Z,102414.63
2023-02-27T02:42:49.010Z,102397.19
2023-02-27T02:46:10.092Z,102401.72
2023-02-27T02:48:56.436Z,102375.78
2023-02-27T02:52:01.395Z,102408.84
2023-02-27T02:55:08.387Z,102414.09
2023-02-27T02:58:01.562Z,102404.53
2023-02-27T03:00:38.028Z,102411.47
2023-02-27T03:03:17.488Z,102386.25
2023-02-27T03:05:54.894Z,102359.31
2023-02-27T03:08:28.948Z,102406.19
2023-02-27T03:11:03.794Z,102404.50
2023-02-27T03:13:43.135Z,102410.59
2023-02-27T03:16:28.382Z,102415.75
2023-02-27T03:19:16.021Z,102406.13
2023-02-27T03:22:02.119Z,102415.69
2023-02-27T03:24:38.904Z,102422.59
2023-02-27T03:27:10.330Z,102397.34
2023-02-27T03:30:03.963Z,102424.13
2023-02-27T03:32:45.887Z,102413.03
2023-02-27T03:35:14.843Z,102418.03
2023-02-27T03:37:50.756Z,102428.66
2023-02-27T03:40:24.656Z,102425.31
2023-02-27T03:43:02.592Z,102426.03
2023-02-27T03:45:55.614Z,102426.94
2023-02-27T03:48:23.702Z,102428.81
2023-02-27T03:50:52.674Z,102417.38
2023-02-27T03:53:37.938Z,102403.63
2023-02-27T03:56:09.183Z,102436.66
2023-02-27T03:58:40.607Z,102371.47
2023-02-27T04:01:11.701Z,102274.28
2023-02-27T04:03:51.478Z,102314.06
2023-02-27T04:06:55.352Z,102443.59
2023-02-27T04:09:58.352Z,102443.72
2023-02-27T04:13:14.363Z,102453.72
2023-02-27T04:16:15.738Z,102449.25
2023-02-27T04:18:52.153Z,102448.84
2023-02-27T04:21:28.788Z,102454.63
2023-02-27T04:24:34.115Z,102422.75
2023-02-27T04:27:48.813Z,102456.97
2023-02-27T04:30:29.184Z,102461.38
2023-02-27T04:33:41.306Z,102462.75
2023-02-27T04:36:43.800Z,102445.25
2023-02-27T04:39:26.316Z,102456.06
2023-02-27T04:42:06.678Z,102479.84
2023-02-27T04:44:38.019Z,102474.47
2023-02-27T04:47:09.474Z,102441.88
2023-02-27T04:50:10.316Z,102436.63
2023-02-27T04:52:52.530Z,102475.66
2023-02-27T04:55:36.249Z,102477.38
2023-02-27T04:58:17.056Z,102447.81
2023-02-27T05:00:55.242Z,102451.25
2023-02-27T05:03:29.324Z,102439.09
2023-02-27T05:06:00.533Z,102427.94
2023-02-27T05:08:35.728Z,102489.50
2023-02-27T05:11:33.790Z,102492.25
2023-02-27T05:14:25.947Z,102477.41
2023-02-27T05:17:04.857Z,102452.19
2023-02-27T05:19:37.471Z,102462.59
2023-02-27T05:22:20.184Z,102495.63
2023-02-27T05:25:15.359Z,102490.31
2023-02-27T05:28:07.358Z,102466.03
2023-02-27T05:31:03.267Z,102498.16
2023-02-27T05:33:49.166Z,102487.75
2023-02-27T05:36:24.907Z,102480.00
2023-02-27T05:39:02.936Z,102486.06
2023-02-27T05:41:48.640Z,102500.81
2023-02-27T05:44:26.105Z,102447.84
2023-02-27T05:47:16.206Z,102504.31
2023-02-27T05:49:49.918Z,102513.91
2023-02-27T05:52:23.304Z,102516.59
2023-02-27T05:55:05.783Z,102511.06
2023-02-27T05:58:05.996Z,102485.81
2023-02-27T06:00:56.652Z,102504.44
2023-02-27T06:03:26.517Z,102535.56
2023-02-27T06:05:57.161Z,102506.88
2023-02-27T06:08:25.590Z,102541.34
2023-02-27T06:10:55.112Z,102530.50
2023-02-27T06:13:24.550Z,102551.09
2023-02-27T06:15:53.080Z,102542.63
2023-02-27T06:18:23.683Z,102552.47
2023-02-27T06:20:52.149Z,102556.53
2023-02-27T06:23:20.138Z,102563.53
2023-02-27T06:25:49.436Z,102551.88
2023-02-27T06:28:17.371Z,102574.81
2023-02-27T06:30:46.450Z,102559.56
2023-02-27T06:33:14.701Z,102534.72
2023-02-27T06:35:42.452Z,102488.63
2023-02-27T06:38:10.561Z,102586.09
2023-02-27T06:40:38.529Z,102544.41
2023-02-27T06:43:06.177Z,102568.28
2023-02-27T06:45:34.048Z,102581.09
2023-02-27T06:48:01.684Z,102582.59
2023-02-27T06:50:29.569Z,102561.28
2023-02-27T06:52:57.315Z,102576.59
2023-02-27T06:55:25.682Z,102551.09
2023-02-27T06:57:53.468Z,102578.06
2023-02-27T07:00:21.685Z,102592.94
2023-02-27T07:02:51.542Z,102595.63
2023-02-27T07:05:19.301Z,102593.56
2023-02-27T07:07:46.993Z,102594.78
2023-02-27T07:10:14.821Z,102594.09
2023-02-27T07:12:42.481Z,102601.69
2023-02-27T07:15:10.844Z,102602.88
2023-02-27T07:17:38.522Z,102567.47
2023-02-27T07:20:08.894Z,102566.63
2023-02-27T07:22:38.539Z,102597.81
2023-02-27T07:25:07.449Z,102589.44
2023-02-27T07:27:35.164Z,102576.72
2023-02-27T07:30:03.423Z,102596.84
2023-02-27T07:32:31.412Z,102595.34
2023-02-27T07:34:59.144Z,102591.84
2023-02-27T07:37:28.166Z,102565.75
2023-02-27T07:39:56.158Z,102524.50
2023-02-27T07:42:24.439Z,102597.25
2023-02-27T07:44:52.101Z,102540.88
2023-02-27T07:47:19.787Z,102575.63
2023-02-27T07:49:52.687Z,102626.47
2023-02-27T07:52:23.396Z,102488.66
2023-02-27T07:54:54.058Z,102442.50
2023-02-27T07:57:24.429Z,102639.09
2023-02-27T07:59:52.236Z,102625.19
2023-02-27T08:02:19.942Z,102590.91
2023-02-27T08:04:51.828Z,102584.94
2023-02-27T08:07:19.714Z,102618.66
2023-02-27T08:09:47.348Z,102623.50
2023-02-27T08:12:15.092Z,102624.38
2023-02-27T08:14:42.943Z,102600.06
2023-02-27T08:17:10.824Z,102560.59
2023-02-27T08:19:38.708Z,102621.78
2023-02-27T08:22:06.515Z,102608.50
2023-02-27T08:24:34.394Z,102612.25
2023-02-27T08:27:02.158Z,102622.31
2023-02-27T08:29:31.294Z,102606.66
2023-02-27T08:32:00.818Z,102609.88
2023-02-27T08:34:30.139Z,102613.81
2023-02-27T08:36:57.821Z,102625.63
2023-02-27T08:39:25.496Z,102534.66
2023-02-27T08:41:53.603Z,102561.78
2023-02-27T08:44:21.408Z,102568.56
2023-02-27T08:46:49.169Z,102610.56
2023-02-27T08:49:16.962Z,102625.84
2023-02-27T08:51:44.572Z,102619.78
2023-02-27T08:54:12.379Z,102620.19
2023-02-27T08:56:40.123Z,102615.09
2023-02-27T08:59:07.718Z,102612.63
2023-02-27T09:01:35.637Z,102619.88
2023-02-27T09:04:05.432Z,102625.34
2023-02-27T09:06:35.988Z,102623.50
2023-02-27T09:09:04.575Z,102608.34
2023-02-27T09:11:32.764Z,102620.09
2023-02-27T09:14:00.859Z,102613.44
2023-02-27T09:16:28.845Z,102619.47
2023-02-27T09:18:56.877Z,102636.78
2023-02-27T09:21:27.532Z,102634.47
2023-02-27T09:23:55.371Z,102610.63
2023-02-27T09:26:39.739Z,102599.56
2023-02-27T09:29:08.746Z,102626.06
2023-02-27T09:31:36.646Z,102632.19
2023-02-27T09:34:04.785Z,102641.41
2023-02-27T09:36:33.143Z,102608.53
2023-02-27T09:39:01.127Z,102649.78
2023-02-27T09:41:49.568Z,102605.31
2023-02-27T09:44:45.190Z,102598.63
2023-02-27T09:47:26.033Z,102636.81
2023-02-27T09:50:28.652Z,102606.56
2023-02-27T09:52:57.098Z,102645.84
2023-02-27T09:55:36.093Z,102645.09
2023-02-27T09:58:45.775Z,102650.84
2023-02-27T10:01:30.228Z,102654.03
2023-02-27T10:05:15.383Z,102652.41
2023-02-27T10:08:33.115Z,102658.63
2023-02-27T10:11:11.829Z,102625.88
2023-02-27T10:14:07.447Z,102564.44
2023-02-27T10:16:36.276Z,102654.56
2023-02-27T10:19:13.873Z,102660.31
2023-02-27T10:21:48.997Z,102658.25
2023-02-27T10:24:37.158Z,102638.72
2023-02-27T10:27:13.332Z,102642.19
2023-02-27T10:29:41.637Z,102636.09
2023-02-27T10:32:33.466Z,102647.31
2023-02-27T10:35:33.455Z,102662.63
2023-02-27T10:38:20.320Z,102662.19
2023-02-27T10:40:48.672Z,102651.38
2023-02-27T10:43:21.067Z,102647.94
2023-02-27T10:45:49.130Z,102662.69
2023-02-27T10:48:18.080Z,102632.38
2023-02-27T10:50:52.168Z,102670.53
2023-02-27T10:53:25.727Z,102670.25
2023-02-27T10:56:10.793Z,102660.00
2023-02-27T10:58:38.691Z,102587.34
2023-02-27T11:01:10.443Z,102665.69
2023-02-27T11:03:44.227Z,102624.03
2023-02-27T11:06:26.734Z,102658.25
2023-02-27T11:09:22.249Z,102666.72
2023-02-27T11:11:51.134Z,102645.13
2023-02-27T11:14:32.733Z,102653.28
2023-02-27T11:17:03.006Z,102658.63
2023-02-27T11:19:37.868Z,102638.03
2023-02-27T11:22:17.535Z,102654.16
2023-02-27T11:24:47.985Z,102590.38
2023-02-27T11:27:30.424Z,102623.00
2023-02-27T11:30:10.686Z,102591.38
2023-02-27T11:32:49.972Z,102635.50
2023-02-27T11:35:32.696Z,102640.56
2023-02-27T11:38:04.680Z,102602.16
2023-02-27T11:40:39.602Z,102612.91
2023-02-27T11:43:46.871Z,102635.63
2023-02-27T11:46:45.106Z,102639.31
2023-02-27T11:49:41.662Z,102631.22
2023-02-27T11:52:19.323Z,102622.31
2023-02-27T11:54:55.477Z,102585.25
2023-02-27T11:57:30.899Z,102621.88
2023-02-27T12:00:18.028Z,102602.47
2023-02-27T12:02:51.446Z,102601.31
2023-02-27T12:05:28.537Z,102632.34
2023-02-27T12:08:06.302Z,102505.09
2023-02-27T12:11:13.029Z,102619.44
2023-02-27T12:13:49.378Z,102623.56
2023-02-27T12:16:39.007Z,102603.53
2023-02-27T12:19:38.473Z,102611.25
2023-02-27T12:22:35.865Z,102592.78
2023-02-27T12:25:14.614Z,102608.78
2023-02-27T12:27:55.723Z,102609.97
2023-02-27T12:30:53.081Z,102613.16
2023-02-27T12:33:38.615Z,102613.09
2023-02-27T12:36:12.683Z,102575.19
2023-02-27T12:38:41.258Z,102584.31
2023-02-27T12:41:33.593Z,102599.13
2023-02-27T12:44:41.802Z,102611.00
2023-02-27T12:47:44.204Z,102615.84
2023-02-27T12:50:23.840Z,102616.97
2023-02-27T12:53:10.098Z,102614.59
2023-02-27T12:55:47.190Z,102625.09
2023-02-27T13:02:21.337Z,102624.06
2023-02-27T13:05:24.165Z,102585.13
2023-02-27T13:08:25.530Z,102625.44
2023-02-27T13:11:08.009Z,102630.94
2023-02-27T13:13:56.076Z,102613.06
2023-02-27T13:17:00.988Z,102629.34
2023-02-27T13:19:41.268Z,102616.03
2023-02-27T13:22:55.851Z,102641.53
2023-02-27T13:25:25.906Z,102629.44
2023-02-27T13:28:24.067Z,102596.00
2023-02-27T13:31:46.867Z,102529.25
2023-02-27T13:34:40.190Z,102607.97
2023-02-27T13:37:41.223Z,102489.13
2023-02-27T13:40:47.787Z,102605.88
2023-02-27T13:43:40.557Z,102601.13
2023-02-27T13:46:43.766Z,102634.38
2023-02-27T13:49:29.539Z,102647.94
2023-02-27T13:52:27.481Z,102565.22
2023-02-27T13:54:59.922Z,102567.50
2023-02-27T13:57:37.943Z,102537.34
2023-02-27T14:00:17.332Z,102641.09
2023-02-27T14:03:08.851Z,102592.97
2023-02-27T14:06:02.189Z,102623.56
2023-02-27T14:08:47.647Z,102543.00
2023-02-27T14:11:49.471Z,102581.81
2023-02-27T14:14:45.982Z,102634.47
2023-02-27T14:17:38.484Z,102630.59
2023-02-27T14:20:16.839Z,102641.03
2023-02-27T14:23:22.079Z,102637.28
2023-02-27T14:25:50.160Z,102642.13
2023-02-27T14:28:55.850Z,102645.88
2023-02-27T14:31:40.601Z,102561.66
2023-02-27T14:34:20.109Z,102630.78
2023-02-27T14:36:55.728Z,102609.44
2023-02-27T14:39:36.519Z,102633.28
2023-02-27T14:42:41.029Z,102637.31
2023-02-27T14:45:38.200Z,102591.94
2023-02-27T14:52:26.386Z,102455.81
2023-02-27T14:55:20.290Z,102637.59
2023-02-27T14:58:21.723Z,102668.94
2023-02-27T15:01:38.161Z,102659.47
2023-02-27T15:04:05.892Z,102503.94
2023-02-27T15:06:46.336Z,102666.56
2023-02-27T15:09:30.663Z,102621.84
2023-02-27T15:12:03.904Z,102667.66
2023-02-27T15:16:11.096Z,102674.84
2023-02-27T15:18:23.815Z,102506.88
2023-02-27T15:20:59.251Z,102542.16
2023-02-27T15:23:29.227Z,102666.91
2023-02-27T15:27:38.877Z,102678.97
2023-02-27T15:30:21.616Z,102658.50
2023-02-27T15:32:49.926Z,102625.31
2023-02-27T15:35:23.474Z,102625.78
2023-02-27T15:37:58.740Z,102682.41
2023-02-27T15:40:30.505Z,102686.72
2023-02-27T15:43:00.133Z,102673.53
2023-02-27T15:45:33.154Z,102681.28
2023-02-27T15:48:01.327Z,102674.09
2023-02-27T15:50:37.021Z,102649.94
2023-02-27T15:53:12.367Z,102688.88
2023-02-27T15:55:44.949Z,102594.94
2023-02-27T15:58:25.292Z,102612.97
2023-02-27T16:01:22.256Z,102660.53
2023-02-27T16:03:54.001Z,102562.69
2023-02-27T16:06:29.231Z,102689.69
2023-02-27T16:09:24.887Z,102664.03
2023-02-27T16:12:24.293Z,102675.78
2023-02-27T16:15:29.326Z,102698.84
2023-02-27T16:18:09.497Z,102698.84
2023-02-27T16:20:55.724Z,102697.59
2023-02-27T16:23:33.502Z,102702.13
2023-02-27T16:26:10.224Z,102703.16
2023-02-27T16:29:27.644Z,102701.78
2023-02-27T16:31:57.481Z,102694.53
2023-02-27T16:34:45.427Z,102713.94
2023-02-27T16:37:46.532Z,102683.66
2023-02-27T16:40:26.346Z,102713.41
2023-02-27T16:42:58.530Z,102691.00
2023-02-27T16:45:41.727Z,102715.28
2023-02-27T16:48:14.875Z,102723.09
2023-02-27T16:50:43.528Z,102706.50
2023-02-27T16:53:11.432Z,102651.78
2023-02-27T16:55:40.899Z,102705.72
2023-02-27T17:02:21.523Z,102606.47
2023-02-27T17:04:49.944Z,102709.69
2023-02-27T17:07:19.794Z,102645.03
2023-02-27T17:09:48.439Z,102707.22
2023-02-27T17:12:16.330Z,102683.84
2023-02-27T17:14:47.598Z,102640.38
2023-02-27T17:17:33.685Z,102659.56
2023-02-27T17:20:06.627Z,102626.59
2023-02-27T17:22:43.975Z,102557.88
2023-02-27T17:26:19.114Z,102728.28
2023-02-27T17:28:57.769Z,102716.28
2023-02-27T17:31:26.084Z,102729.47
2023-02-27T17:33:54.657Z,102702.44
2023-02-27T17:36:23.385Z,102641.72
2023-02-27T17:39:00.758Z,102675.16
2023-02-27T17:41:33.028Z,102593.69
2023-02-27T17:44:05.176Z,102737.44
2023-02-27T17:47:10.257Z,102610.19
2023-02-27T17:49:38.274Z,102683.44
2023-02-27T17:52:14.097Z,102729.47
2023-02-27T17:59:37.082Z,102615.50
2023-02-27T18:02:04.808Z,102733.97
2023-02-27T18:04:32.829Z,102627.63
2023-02-27T18:07:02.973Z,102670.16
2023-02-27T18:09:33.700Z,102732.97
2023-02-27T18:12:02.072Z,102691.91
2023-02-27T18:14:33.107Z,102728.81
2023-02-27T18:17:04.023Z,102726.31
2023-02-27T18:19:32.641Z,102737.50
2023-02-27T18:22:00.660Z,102722.06
2023-02-27T18:24:31.310Z,102707.06
2023-02-27T18:26:59.277Z,102714.94
2023-02-27T18:29:27.709Z,102625.47
2023-02-27T18:31:55.737Z,102711.81
2023-02-27T18:34:31.163Z,102733.47
2023-02-27T18:36:59.094Z,102712.78
2023-02-27T18:39:26.952Z,102721.63
2023-02-27T18:41:54.751Z,102725.28
2023-02-27T18:44:22.570Z,102727.47
2023-02-27T18:46:51.263Z,102558.78
2023-02-27T18:49:27.591Z,102708.63
2023-02-27T18:51:55.561Z,102692.09
2023-02-27T18:54:23.212Z,102739.66
2023-02-27T18:56:51.924Z,102721.38
2023-02-27T18:59:19.819Z,102736.41
2023-02-27T19:01:47.663Z,102749.69
2023-02-27T19:04:15.417Z,102751.66
2023-02-27T19:06:43.101Z,102728.69
2023-02-27T19:09:17.437Z,102730.47
2023-02-27T19:11:47.011Z,102759.13
2023-02-27T19:14:16.380Z,102751.78
2023-02-27T19:16:46.096Z,102771.13
2023-02-27T19:19:13.980Z,102696.97
2023-02-27T19:21:41.868Z,102674.19
2023-02-27T19:24:13.200Z,102710.19
2023-02-27T19:26:41.318Z,102756.16
2023-02-27T19:29:09.377Z,102770.22
2023-02-27T19:31:37.327Z,102762.31
2023-02-27T19:34:05.464Z,102750.91
2023-02-27T19:36:36.594Z,102762.53
2023-02-27T19:39:04.640Z,102621.13
2023-02-27T19:41:33.589Z,102757.00
2023-02-27T19:44:01.820Z,102774.69
2023-02-27T19:46:35.304Z,102788.34
2023-02-27T19:49:08.742Z,102745.63
2023-02-27T19:52:05.878Z,102698.88
2023-02-27T19:54:34.095Z,102779.97
2023-02-27T19:57:02.323Z,102753.84
2023-02-27T19:59:57.293Z,102801.72
2023-02-27T20:02:57.067Z,102590.50
2023-02-27T20:05:40.237Z,102680.22
2023-02-27T20:08:15.459Z,102668.22
2023-02-27T20:11:13.887Z,102790.44
2023-02-27T20:14:02.492Z,102767.25
2023-02-27T20:16:45.959Z,102694.09
2023-02-27T20:19:20.493Z,102681.59
2023-02-27T20:22:08.865Z,102810.63
2023-02-27T20:25:09.601Z,102731.56
2023-02-27T20:27:54.711Z,102722.59
2023-02-27T20:31:16.687Z,102788.09
2023-02-27T20:33:52.999Z,102686.91
2023-02-27T20:36:38.090Z,102601.25
2023-02-27T20:39:12.339Z,102657.16
2023-02-27T20:41:40.459Z,102733.50
2023-02-27T20:44:09.140Z,102717.59
2023-02-27T20:46:40.906Z,102748.78
2023-02-27T20:49:12.107Z,102786.31
2023-02-27T20:51:42.335Z,102787.84
2023-02-27T20:54:14.172Z,102744.16
2023-02-27T20:56:43.305Z,102781.19
2023-02-27T20:59:15.207Z,102782.16
2023-02-27T21:01:51.652Z,102745.72
2023-02-27T21:04:42.297Z,102771.81
2023-02-27T21:07:13.336Z,102788.31
2023-02-27T21:09:41.776Z,102776.31
2023-02-27T21:12:10.601Z,102784.28
2023-02-27T21:14:38.847Z,102746.44
2023-02-27T21:17:07.695Z,102797.19
2023-02-27T21:19:35.850Z,102786.59
2023-02-27T21:22:04.080Z,102794.22
2023-02-27T21:24:32.473Z,102759.22
2023-02-27T21:27:02.886Z,102704.22
2023-02-27T21:29:30.806Z,102737.00
2023-02-27T21:31:58.949Z,102791.06
2023-02-27T21:34:29.829Z,102735.59
2023-02-27T21:36:57.685Z,102787.22
2023-02-27T21:39:30.338Z,102750.78
2023-02-27T21:41:59.579Z,102793.13
2023-02-27T21:44:29.570Z,102774.84
2023-02-27T21:46:58.089Z,102807.38
2023-02-27T21:49:28.545Z,102789.78
2023-02-27T21:51:56.255Z,102790.75
2023-02-27T21:54:24.511Z,102793.47
2023-02-27T21:56:52.396Z,102769.03
2023-02-27T21:59:21.583Z,102798.50
2023-02-27T22:01:49.458Z,102798.06
2023-02-27T22:04:20.329Z,102799.75
2023-02-27T22:06:52.463Z,102800.16
2023-02-27T22:09:21.586Z,102808.59
2023-02-27T22:11:49.735Z,102766.72
2023-02-27T22:14:17.562Z,102736.44
2023-02-27T22:16:45.365Z,102787.75
2023-02-27T22:19:19.742Z,102797.66
2023-02-27T22:21:48.326Z,102800.19
2023-02-27T22:24:16.317Z,102802.84
2023-02-27T22:26:44.583Z,102778.38
2023-02-27T22:29:12.354Z,102801.66
2023-02-27T22:31:40.348Z,102804.03
2023-02-27T22:34:18.066Z,102772.91
2023-02-27T22:36:52.636Z,102773.63
2023-02-27T22:39:21.224Z,102797.06
2023-02-27T22:41:49.616Z,102806.06
2023-02-27T22:44:19.190Z,102812.31
2023-02-27T22:46:49.605Z,102785.97
2023-02-27T22:49:21.677Z,102809.66
2023-02-27T22:51:51.977Z,102810.72
2023-02-27T22:54:22.769Z,102807.97
2023-02-27T22:56:52.797Z,102823.44
2023-02-27T22:59:21.124Z,102777.28
2023-02-27T23:01:50.333Z,102809.78
2023-02-27T23:04:18.618Z,102818.13
2023-02-27T23:06:46.619Z,102816.03
2023-02-27T23:09:20.591Z,102825.63
2023-02-27T23:11:48.314Z,102801.75
2023-02-27T23:14:16.252Z,102775.91
2023-02-27T23:16:47.188Z,102812.09
2023-02-27T23:19:19.129Z,102804.94
2023-02-27T23:21:47.461Z,102809.19
2023-02-27T23:24:18.516Z,102806.50
2023-02-27T23:26:49.691Z,102818.25
2023-02-27T23:29:17.453Z,102828.81
2023-02-27T23:31:45.327Z,102806.38
2023-02-27T23:34:13.245Z,102830.53
2023-02-27T23:36:41.090Z,102820.88
2023-02-27T23:39:09.183Z,102822.38
2023-02-27T23:41:36.967Z,102778.72
2023-02-27T23:44:04.961Z,102812.69
2023-02-27T23:46:32.690Z,102829.09
2023-02-27T23:49:01.838Z,102809.19
2023-02-27T23:51:30.925Z,102819.34
2023-02-27T23:53:59.912Z,102796.66
2023-02-27T23:56:30.998Z,102794.06
2023-02-27T23:59:03.908Z,102824.19
